Xiamen, China
Current Conditions -  °F | °C
As of 11:00 PM on Wednesday 22 Oct 2014 (Local Time) from ZSAM Reporting Station
Broken Clouds Broken Clouds  
Wind Chill: 73°   Ceiling: 6000
Heat Index: 73°   Visibility: 6mi
Dew Point: 64°   Wind: 18mph
Humidity: 73%   Direction: 50°NE
Pressure: 30.06"   Gusts: NA
Location:  24.45°N, 118.08°E
Report Text: ZSAM 221500Z 05008MPS 9999 SCT040 BKN060 23/18 Q1018 NOSIG
Loading
Personal Weather Stations






























Interactive Weather Map
Tropical Storm Tracking
New forecast layout! Learn more

10-Day Weather Forecast

Advertisements
Track Severe Weather on mobile